Time;durP1;ratioP1;P1;durP2;ratioP2;P2;SDS_P1;SDS_P2;PMS_P1;PMS_P2;Temp;Humidity;BMP_temperature;BMP_pressure;BME280_temperature;BME280_humidity;BME280_pressure;Samples;Min_cycle;Max_cycle;Signal;HPM_P1;HPM_P2
2023/06/29 00:00:22;;;;;;;6.60;2.83;;;;;;;16.71;100.00;100169.22;4989557;28;20196;-66
2023/06/29 00:02:50;;;;;;;3.43;3.03;;;;;;;16.69;100.00;100171.09;5006443;28;20249;-66
2023/06/29 00:05:16;;;;;;;5.53;3.20;;;;;;;16.67;100.00;100167.78;5002331;28;20198;-67
2023/06/29 00:07:42;;;;;;;4.03;3.10;;;;;;;16.71;100.00;100174.41;4993190;28;20176;-66
2023/06/29 00:10:09;;;;;;;5.53;2.80;;;;;;;16.58;100.00;100167.59;4983909;28;20194;-64
2023/06/29 00:12:35;;;;;;;5.60;3.10;;;;;;;16.63;100.00;100169.78;5005969;28;20226;-65
2023/06/29 00:15:00;;;;;;;5.90;3.00;;;;;;;16.64;100.00;100168.03;5009491;28;20187;-65
2023/06/29 00:17:26;;;;;;;3.93;3.10;;;;;;;16.65;100.00;100161.91;5006604;28;20171;-65
2023/06/29 00:19:51;;;;;;;4.00;3.00;;;;;;;16.61;100.00;100167.31;5009969;28;20625;-65
2023/06/29 00:22:18;;;;;;;3.87;2.77;;;;;;;16.61;100.00;100167.31;5012034;28;20236;-65
2023/06/29 00:24:44;;;;;;;3.90;3.00;;;;;;;16.61;100.00;100164.72;4999977;28;20190;-65
2023/06/29 00:27:13;;;;;;;8.93;3.00;;;;;;;16.52;100.00;100162.88;5007387;28;20744;-66
2023/06/29 00:29:41;;;;;;;3.00;2.63;;;;;;;16.47;100.00;100159.78;5009411;28;20232;-66
2023/06/29 00:32:07;;;;;;;6.70;3.00;;;;;;;16.58;100.00;100157.19;5000619;28;20234;-66
2023/06/29 00:34:32;;;;;;;5.03;3.23;;;;;;;16.56;100.00;100158.25;4983936;28;20664;-66
2023/06/29 00:36:58;;;;;;;3.40;2.57;;;;;;;16.54;100.00;100147.97;4993506;28;20208;-65
2023/06/29 00:39:23;;;;;;;4.63;3.00;;;;;;;16.51;100.00;100153.44;4993631;28;20179;-65
2023/06/29 00:41:55;;;;;;;6.37;3.57;;;;;;;16.46;100.00;100152.97;5008231;28;20289;-65
2023/06/29 00:44:21;;;;;;;4.90;2.80;;;;;;;16.50;100.00;100159.56;5010910;28;20201;-65
2023/06/29 00:46:47;;;;;;;5.27;3.47;;;;;;;16.46;100.00;100151.19;5008123;28;20337;-65
2023/06/29 00:49:13;;;;;;;5.67;2.97;;;;;;;16.44;100.00;100157.44;5011321;28;20186;-65
2023/06/29 00:51:39;;;;;;;4.30;2.93;;;;;;;16.19;100.00;100155.94;5011644;28;20292;-66
2023/06/29 00:54:04;;;;;;;5.17;3.30;;;;;;;16.26;100.00;100154.50;5013966;28;20182;-65
2023/06/29 00:56:34;;;;;;;3.70;2.77;;;;;;;16.27;100.00;100159.59;5007058;28;20179;-65
2023/06/29 00:59:00;;;;;;;6.70;3.13;;;;;;;16.29;100.00;100155.09;5002760;28;20182;-66
2023/06/29 01:01:27;;;;;;;4.30;3.20;;;;;;;16.18;100.00;100151.69;5009538;28;20273;-65
2023/06/29 01:03:53;;;;;;;4.73;3.50;;;;;;;16.21;100.00;100154.03;5014783;28;20199;-65
2023/06/29 01:06:21;;;;;;;3.70;3.20;;;;;;;16.09;100.00;100151.44;4982286;28;20180;-65
2023/06/29 01:08:51;;;;;;;4.53;3.10;;;;;;;16.05;100.00;100150.03;4993421;28;20566;-65
2023/06/29 01:11:19;;;;;;;12.40;3.97;;;;;;;16.02;100.00;100145.06;4992332;28;20288;-66
2023/06/29 01:13:47;;;;;;;11.10;3.43;;;;;;;16.04;100.00;100145.78;4976003;28;20184;-65
2023/06/29 01:16:14;;;;;;;5.93;3.43;;;;;;;15.93;100.00;100150.97;4992688;28;20186;-66
2023/06/29 01:18:43;;;;;;;6.27;3.77;;;;;;;15.83;100.00;100143.06;4991726;28;20186;-65
2023/06/29 01:21:08;;;;;;;7.77;3.20;;;;;;;15.75;100.00;100146.22;4989216;28;20225;-65
2023/06/29 01:23:38;;;;;;;8.57;4.17;;;;;;;15.70;100.00;100145.72;4991978;28;20183;-66
2023/06/29 01:26:05;;;;;;;7.67;4.17;;;;;;;15.68;100.00;100139.00;4992095;28;20175;-65
2023/06/29 01:28:32;;;;;;;5.10;3.77;;;;;;;15.61;100.00;100142.06;4993123;28;20634;-65
2023/06/29 01:30:58;;;;;;;7.73;4.20;;;;;;;15.51;100.00;100133.31;4989515;28;20305;-65
2023/06/29 01:33:24;;;;;;;5.00;3.50;;;;;;;15.54;100.00;100140.88;5000667;28;20305;-65
2023/06/29 01:35:57;;;;;;;4.53;3.57;;;;;;;15.57;100.00;100140.66;4992193;28;20191;-65
2023/06/29 01:38:37;;;;;;;7.53;6.37;;;;;;;15.51;100.00;100138.50;4991537;28;20187;-65
2023/06/29 01:41:05;;;;;;;5.73;4.40;;;;;;;15.59;100.00;100137.94;4988456;28;20269;-65
2023/06/29 01:43:31;;;;;;;6.33;5.27;;;;;;;15.60;100.00;100134.41;5000448;28;20559;-65
2023/06/29 01:45:57;;;;;;;12.83;8.80;;;;;;;15.60;100.00;100135.25;4975076;28;20172;-65
2023/06/29 01:48:22;;;;;;;8.47;5.87;;;;;;;15.63;100.00;100137.59;4986792;28;20654;-65
2023/06/29 01:50:48;;;;;;;6.80;3.43;;;;;;;15.65;100.00;100134.88;4976183;28;20234;-65
2023/06/29 01:53:14;;;;;;;6.03;5.23;;;;;;;15.70;100.00;100135.34;4990778;28;20179;-64
2023/06/29 01:55:39;;;;;;;7.50;4.87;;;;;;;15.62;100.00;100141.13;4990749;28;20175;-64
2023/06/29 01:58:04;;;;;;;7.13;5.07;;;;;;;15.61;100.00;100133.47;4991927;28;20226;-64
2023/06/29 02:00:30;;;;;;;6.60;4.43;;;;;;;15.62;100.00;100124.75;4985526;28;20230;-64
2023/06/29 02:02:55;;;;;;;5.70;4.90;;;;;;;15.65;100.00;100127.09;5004782;28;20203;-66
2023/06/29 02:05:21;;;;;;;6.33;4.87;;;;;;;15.65;100.00;100135.72;4990910;28;20179;-65
2023/06/29 02:07:46;;;;;;;3.90;3.37;;;;;;;15.63;100.00;100129.81;4992329;28;20211;-65
2023/06/29 02:10:12;;;;;;;4.97;3.80;;;;;;;15.61;100.00;100134.28;4983530;28;20203;-65
2023/06/29 02:12:40;;;;;;;7.80;5.90;;;;;;;15.58;100.00;100131.94;5006119;28;20571;-66
2023/06/29 02:15:06;;;;;;;6.07;4.63;;;;;;;15.61;100.00;100130.88;4979430;28;20172;-65
2023/06/29 02:17:31;;;;;;;8.00;4.20;;;;;;;15.60;100.00;100129.22;4992168;28;20202;-65
2023/06/29 02:19:57;;;;;;;7.37;4.20;;;;;;;15.60;100.00;100130.06;4992126;28;20258;-65
2023/06/29 02:22:22;;;;;;;5.43;4.23;;;;;;;15.59;100.00;100132.75;4997611;28;20269;-65
2023/06/29 02:24:47;;;;;;;5.63;3.70;;;;;;;15.53;100.00;100130.63;4992450;28;20536;-65
2023/06/29 02:27:13;;;;;;;4.97;4.00;;;;;;;15.47;100.00;100130.13;4975108;28;20253;-65
2023/06/29 02:29:38;;;;;;;4.07;3.67;;;;;;;15.42;100.00;100121.06;4991478;28;20214;-64
2023/06/29 02:32:04;;;;;;;4.73;3.70;;;;;;;15.38;100.00;100122.22;4996884;28;20718;-65
2023/06/29 02:34:30;;;;;;;6.40;3.97;;;;;;;15.39;100.00;100116.91;4991133;28;20187;-65
2023/06/29 02:36:55;;;;;;;6.10;3.53;;;;;;;15.41;100.00;100115.03;4990564;28;20191;-65
2023/06/29 02:39:20;;;;;;;6.40;3.73;;;;;;;15.37;100.00;100110.19;4990555;28;20191;-65
2023/06/29 02:41:46;;;;;;;6.00;4.27;;;;;;;15.33;100.00;100099.22;4984125;28;20246;-66
2023/06/29 02:44:11;;;;;;;6.27;4.87;;;;;;;15.28;100.00;100114.28;4993928;28;20191;-65
2023/06/29 02:46:36;;;;;;;4.50;4.10;;;;;;;15.24;100.00;100112.88;4992137;28;20253;-65
2023/06/29 02:49:02;;;;;;;6.20;4.47;;;;;;;15.16;100.00;100113.47;4992526;28;20183;-65
2023/06/29 02:51:27;;;;;;;6.87;4.13;;;;;;;15.01;100.00;100100.69;4983829;28;20622;-65
2023/06/29 02:53:52;;;;;;;5.40;3.83;;;;;;;15.08;100.00;100105.41;4996041;28;20508;-65
2023/06/29 02:56:17;;;;;;;5.53;3.90;;;;;;;15.09;100.00;100094.94;4991399;28;20187;-65
2023/06/29 02:58:43;;;;;;;5.13;3.83;;;;;;;15.15;100.00;100099.66;4991590;28;20313;-66
2023/06/29 03:01:08;;;;;;;5.53;4.23;;;;;;;15.15;100.00;100099.66;4980054;28;20305;-65
2023/06/29 03:03:33;;;;;;;5.03;3.70;;;;;;;15.09;100.00;100113.06;4999034;28;20189;-65
2023/06/29 03:05:58;;;;;;;6.53;3.70;;;;;;;15.10;100.00;100117.31;4991399;28;20187;-65
2023/06/29 03:08:24;;;;;;;4.83;4.27;;;;;;;15.08;100.00;100111.44;4992075;28;20190;-66
2023/06/29 03:10:49;;;;;;;6.97;4.30;;;;;;;15.05;100.00;100109.06;4991425;28;20724;-66
2023/06/29 03:13:14;;;;;;;9.57;4.67;;;;;;;15.02;100.00;100117.06;5009369;28;20182;-64
2023/06/29 03:15:40;;;;;;;5.60;4.50;;;;;;;15.05;100.00;100113.41;5000788;28;20716;-65
2023/06/29 03:18:05;;;;;;;4.87;3.70;;;;;;;15.02;100.00;100114.47;5012728;28;20183;-64
2023/06/29 03:20:30;;;;;;;5.70;3.90;;;;;;;15.02;100.00;100111.88;5006974;28;20704;-66
2023/06/29 03:22:55;;;;;;;4.90;3.97;;;;;;;15.12;100.00;100107.66;5025006;28;20187;-64
2023/06/29 03:25:21;;;;;;;7.57;4.40;;;;;;;15.06;100.00;100099.50;5014034;28;20205;-65
2023/06/29 03:27:46;;;;;;;4.73;4.30;;;;;;;15.12;100.00;100092.13;5012678;28;20222;-66
2023/06/29 03:30:11;;;;;;;4.67;4.00;;;;;;;15.13;100.00;100098.97;4985429;28;20190;-64
2023/06/29 03:32:37;;;;;;;7.20;3.67;;;;;;;15.16;100.00;100096.13;4990292;28;20200;-66
2023/06/29 03:35:03;;;;;;;4.63;4.23;;;;;;;15.16;100.00;100096.13;4985981;28;20282;-66
2023/06/29 03:37:28;;;;;;;4.40;3.77;;;;;;;15.13;100.00;100092.94;4995292;28;20200;-65
2023/06/29 03:39:54;;;;;;;6.23;3.93;;;;;;;15.20;100.00;100099.31;4995295;28;20269;-65
2023/06/29 03:42:19;;;;;;;11.07;3.83;;;;;;;15.23;100.00;100093.09;4998676;28;20215;-66
2023/06/29 03:44:44;;;;;;;4.57;4.17;;;;;;;15.27;100.00;100095.34;4994156;28;20183;-66
2023/06/29 03:47:10;;;;;;;4.10;3.70;;;;;;;15.33;100.00;100091.44;4994427;28;20195;-65
2023/06/29 03:49:35;;;;;;;5.23;4.10;;;;;;;15.43;100.00;100083.81;4994665;28;20184;-65
2023/06/29 03:52:00;;;;;;;4.73;3.60;;;;;;;15.54;100.00;100077.81;5000568;28;20297;-65
2023/06/29 03:54:27;;;;;;;5.13;3.87;;;;;;;15.62;100.00;100075.50;5013306;28;20189;-65
2023/06/29 03:56:53;;;;;;;5.03;3.33;;;;;;;15.79;100.00;100080.22;5012753;28;20552;-64
2023/06/29 03:59:18;;;;;;;5.87;4.33;;;;;;;15.90;100.00;100083.75;5012963;28;20178;-65
2023/06/29 04:01:43;;;;;;;3.93;3.53;;;;;;;16.06;100.00;100086.84;5016214;28;20599;-65
2023/06/29 04:04:09;;;;;;;4.63;3.53;;;;;;;16.21;100.00;100077.03;5014901;28;20249;-65
2023/06/29 04:06:34;;;;;;;3.73;3.30;;;;;;;16.10;100.00;100077.84;5000399;28;20175;-65
2023/06/29 04:08:59;;;;;;;6.63;3.40;;;;;;;16.25;100.00;100075.81;5013386;28;20186;-65
2023/06/29 04:11:24;;;;;;;5.57;3.57;;;;;;;16.34;100.00;100076.88;5013583;28;20291;-65
2023/06/29 04:13:50;;;;;;;6.40;3.37;;;;;;;16.32;100.00;100083.94;5018504;28;20282;-66
2023/06/29 04:16:15;;;;;;;5.60;3.40;;;;;;;16.44;100.00;100080.38;5009805;28;20252;-66
2023/06/29 04:18:40;;;;;;;5.87;3.90;;;;;;;16.57;100.00;100076.78;4992925;28;20187;-66
2023/06/29 04:21:06;;;;;;;3.73;3.43;;;;;;;16.62;100.00;100085.03;4990681;28;21862;-66
2023/06/29 04:23:31;;;;;;;5.97;3.60;;;;;;;16.67;100.00;100090.72;5001053;28;20187;-66
2023/06/29 04:25:56;;;;;;;5.67;4.00;;;;;;;16.54;100.00;100085.66;5006623;28;20611;-65
2023/06/29 04:28:21;;;;;;;4.90;3.77;;;;;;;16.66;100.00;100078.66;4993693;28;20234;-65
2023/06/29 04:30:47;;;;;;;3.87;3.30;;;;;;;16.71;100.00;100070.50;4989251;28;20218;-66
2023/06/29 04:33:14;;;;;;;10.13;4.10;;;;;;;16.70;100.00;100074.88;5003214;28;20638;-66
2023/06/29 04:35:43;;;;;;;5.07;3.67;;;;;;;16.86;100.00;100074.44;4993219;28;20176;-66
2023/06/29 04:38:10;;;;;;;4.33;3.50;;;;;;;16.97;100.00;100063.22;4993667;28;20657;-66
2023/06/29 04:40:36;;;;;;;6.10;3.77;;;;;;;16.93;100.00;100067.84;4987254;28;20223;-65
2023/06/29 04:43:02;;;;;;;5.27;3.57;;;;;;;16.94;100.00;100072.09;5003797;28;20187;-65
2023/06/29 04:45:28;;;;;;;7.03;3.00;;;;;;;17.11;100.00;100064.66;4992890;28;20222;-65
2023/06/29 04:47:56;;;;;;;3.57;3.23;;;;;;;17.29;100.00;100058.88;4993572;28;20184;-65
2023/06/29 04:50:24;;;;;;;4.33;3.50;;;;;;;17.53;100.00;100063.81;4985112;28;20214;-65
2023/06/29 04:52:50;;;;;;;5.47;3.47;;;;;;;17.69;100.00;100061.56;5006666;28;20183;-65
2023/06/29 04:55:16;;;;;;;6.10;3.20;;;;;;;17.88;100.00;100060.78;4993339;28;20206;-66
2023/06/29 04:57:41;;;;;;;7.63;3.10;;;;;;;18.15;100.00;100061.19;4994264;28;20714;-65
2023/06/29 05:00:08;;;;;;;4.33;3.70;;;;;;;18.39;100.00;100066.84;4985791;28;20179;-66
2023/06/29 05:02:33;;;;;;;5.70;3.47;;;;;;;18.53;100.00;100063.03;5007186;28;20190;-66
2023/06/29 05:04:58;;;;;;;4.03;3.43;;;;;;;18.92;100.00;100056.19;4992149;28;20258;-66
2023/06/29 05:07:23;;;;;;;4.37;2.87;;;;;;;19.09;100.00;100052.88;4992893;28;20577;-64
2023/06/29 05:09:49;;;;;;;4.50;3.00;;;;;;;19.32;100.00;100049.91;4993071;28;20183;-64
2023/06/29 05:12:14;;;;;;;3.77;3.17;;;;;;;19.46;100.00;100054.69;4997737;28;20223;-65
2023/06/29 05:14:40;;;;;;;6.57;3.23;;;;;;;19.87;100.00;100049.19;4995799;28;20179;-65
2023/06/29 05:17:05;;;;;;;5.20;3.07;;;;;;;20.12;100.00;100050.28;5012352;28;20588;-66
2023/06/29 05:19:31;;;;;;;4.53;2.90;;;;;;;20.42;100.00;100056.13;5002732;28;20179;-71
2023/06/29 05:21:57;;;;;;;3.67;3.30;;;;;;;20.56;100.00;100049.53;4985686;28;20290;-71
2023/06/29 05:24:22;;;;;;;3.77;3.10;;;;;;;20.91;100.00;100052.31;4992763;28;20183;-71
2023/06/29 05:26:48;;;;;;;5.93;2.90;;;;;;;21.13;100.00;100051.00;4995844;28;20223;-71
2023/06/29 05:29:13;;;;;;;5.73;2.83;;;;;;;21.44;100.00;100051.31;4992560;28;20234;-72
2023/06/29 05:31:38;;;;;;;5.67;3.10;;;;;;;21.80;100.00;100049.56;4998885;28;20253;-70
2023/06/29 05:34:03;;;;;;;4.87;3.03;;;;;;;22.16;100.00;100051.94;5003731;28;20553;-70
2023/06/29 05:36:29;;;;;;;7.70;3.63;;;;;;;22.50;100.00;100053.66;4996985;28;20199;-68
2023/06/29 05:38:54;;;;;;;3.90;3.20;;;;;;;22.43;100.00;100050.88;4995575;28;20183;-69
2023/06/29 05:41:20;;;;;;;11.63;3.47;;;;;;;22.75;100.00;100051.03;4994292;28;20293;-70
2023/06/29 05:43:45;;;;;;;7.80;3.50;;;;;;;23.21;100.00;100038.25;4996846;28;20187;-70
2023/06/29 05:46:10;;;;;;;4.80;3.33;;;;;;;23.17;99.48;100040.38;4992096;28;20188;-70
2023/06/29 05:48:35;;;;;;;4.23;3.07;;;;;;;23.00;99.22;100044.78;4990465;28;20681;-70
2023/06/29 05:51:01;;;;;;;5.43;3.63;;;;;;;22.90;100.00;100044.16;4989446;28;20728;-70
2023/06/29 05:53:26;;;;;;;6.13;3.57;;;;;;;22.74;100.00;100050.25;4999904;28;20210;-69
2023/06/29 05:55:51;;;;;;;6.50;3.77;;;;;;;22.87;100.00;100049.72;5010480;28;20182;-70
2023/06/29 05:58:16;;;;;;;4.77;3.20;;;;;;;22.87;100.00;100040.06;4999278;28;20187;-68
2023/06/29 06:00:42;;;;;;;5.00;3.27;;;;;;;22.40;100.00;100036.31;4996969;28;20304;-69
2023/06/29 06:03:08;;;;;;;5.90;3.90;;;;;;;22.28;100.00;100044.59;5003517;28;20180;-69
2023/06/29 06:05:33;;;;;;;6.40;3.63;;;;;;;22.65;100.00;100044.19;5003190;28;20182;-69
2023/06/29 06:07:58;;;;;;;9.77;3.67;;;;;;;23.42;97.52;100035.06;4990699;28;20183;-69
2023/06/29 06:10:23;;;;;;;5.77;3.80;;;;;;;24.39;92.02;100041.78;4984615;28;20229;-69
2023/06/29 06:12:49;;;;;;;5.80;3.57;;;;;;;25.21;88.05;100042.91;4992064;28;20631;-69
2023/06/29 06:15:15;;;;;;;7.35;3.53;;;;;;;25.03;87.85;100040.63;5011223;28;20179;-70
2023/06/29 06:17:40;;;;;;;7.30;3.70;;;;;;;24.16;90.07;100047.03;5009238;28;20229;-69
2023/06/29 06:20:06;;;;;;;5.72;3.67;;;;;;;24.66;89.11;100042.28;5001393;28;20189;-68
2023/06/29 06:22:32;;;;;;;5.88;3.50;;;;;;;25.69;84.71;100042.53;5024853;28;20216;-69
2023/06/29 06:24:57;;;;;;;7.63;3.53;;;;;;;26.60;76.86;100049.16;5010500;28;20650;-71
2023/06/29 06:27:23;;;;;;;6.30;3.00;;;;;;;25.79;80.47;100036.97;5007758;28;20222;-70
2023/06/29 06:29:48;;;;;;;4.40;2.75;;;;;;;26.66;73.03;100044.94;5010039;28;20210;-70
2023/06/29 06:32:13;;;;;;;4.03;3.10;;;;;;;27.03;69.30;100041.16;4999175;28;20693;-70
2023/06/29 06:34:38;;;;;;;7.60;3.53;;;;;;;27.72;63.84;100037.88;5009294;28;20185;-70
2023/06/29 06:37:05;;;;;;;4.13;2.90;;;;;;;27.96;61.59;100039.16;5006902;28;20211;-70
2023/06/29 06:39:32;;;;;;;5.07;3.20;;;;;;;27.90;61.02;100038.13;5009732;28;20580;-70
2023/06/29 06:41:59;;;;;;;16.60;3.33;;;;;;;28.55;59.28;100039.47;5013826;28;20230;-71
2023/06/29 06:44:25;;;;;;;4.57;3.20;;;;;;;27.84;63.55;100034.44;5011954;28;20258;-69
2023/06/29 06:46:50;;;;;;;7.45;3.70;;;;;;;29.46;53.16;100036.09;5011171;28;20337;-70
2023/06/29 06:49:15;;;;;;;5.53;2.90;;;;;;;29.50;52.54;100031.19;5013203;28;20230;-68
2023/06/29 06:51:40;;;;;;;10.55;3.50;;;;;;;29.82;49.73;100036.56;5014868;28;20241;-69
2023/06/29 06:54:06;;;;;;;5.47;3.33;;;;;;;30.58;47.90;100039.34;4987716;28;20187;-70
2023/06/29 06:56:31;;;;;;;10.13;4.00;;;;;;;29.21;52.78;100038.59;4993064;28;20293;-64
2023/06/29 06:58:56;;;;;;;8.35;3.55;;;;;;;29.65;51.20;100038.06;5004089;28;20180;-64
2023/06/29 07:01:22;;;;;;;6.32;3.10;;;;;;;30.38;49.54;100034.97;4987386;28;20255;-63
2023/06/29 07:03:48;;;;;;;5.28;3.20;;;;;;;29.27;49.79;100036.94;5000962;28;20717;-63
2023/06/29 07:06:13;;;;;;;8.32;2.90;;;;;;;30.20;46.12;100037.56;4995574;28;20662;-64
2023/06/29 07:08:38;;;;;;;9.00;3.13;;;;;;;29.13;50.82;100033.53;5013218;28;20623;-64
2023/06/29 07:11:04;;;;;;;6.35;4.15;;;;;;;29.40;48.98;100034.28;5009535;28;20237;-64
2023/06/29 07:13:29;;;;;;;7.70;3.22;;;;;;;29.35;48.73;100033.28;5019883;28;20182;-63
2023/06/29 07:15:55;;;;;;;4.97;3.15;;;;;;;29.18;51.36;100035.56;5006267;28;20228;-65
2023/06/29 07:18:20;;;;;;;8.50;3.25;;;;;;;30.71;44.79;100036.56;5014344;28;20188;-64
2023/06/29 07:20:48;;;;;;;6.13;2.40;;;;;;;31.44;42.26;100044.81;4989805;28;20686;-63
2023/06/29 07:23:14;;;;;;;6.97;2.42;;;;;;;30.78;41.22;100038.34;5002529;28;20188;-63
2023/06/29 07:25:39;;;;;;;6.38;2.67;;;;;;;31.38;40.97;100037.72;4993028;28;20241;-64
2023/06/29 07:28:04;;;;;;;9.18;2.20;;;;;;;32.38;38.83;100032.91;4950117;28;1261260;-64
2023/06/29 07:30:29;;;;;;;6.93;2.30;;;;;;;31.67;40.21;100028.19;4967530;28;20324;-65
2023/06/29 07:32:55;;;;;;;9.63;2.33;;;;;;;31.54;40.03;100036.31;5005068;28;20206;-64
2023/06/29 07:35:20;;;;;;;8.63;2.80;;;;;;;31.60;38.81;100023.97;4993559;28;20190;-65
2023/06/29 07:37:45;;;;;;;5.72;2.42;;;;;;;30.97;40.60;100029.34;4994032;28;20636;-64
2023/06/29 07:40:11;;;;;;;4.07;2.20;;;;;;;32.35;36.60;100023.53;4985210;28;20601;-64
2023/06/29 07:42:37;;;;;;;3.42;2.17;;;;;;;33.62;33.82;100028.34;5017415;28;20209;-64
2023/06/29 07:45:04;;;;;;;2.92;1.88;;;;;;;32.83;34.43;100027.03;4998795;28;20206;-64
2023/06/29 07:47:29;;;;;;;4.30;1.95;;;;;;;32.43;36.44;100026.91;5002346;28;20183;-65
2023/06/29 07:49:54;;;;;;;3.50;2.05;;;;;;;30.81;39.88;100029.94;4998903;28;20199;-65
2023/06/29 07:52:19;;;;;;;3.45;2.00;;;;;;;31.62;38.59;100019.22;5008996;28;20301;-64
2023/06/29 07:54:45;;;;;;;5.40;2.40;;;;;;;32.22;37.25;100023.75;4998505;28;20627;-65
2023/06/29 07:57:11;;;;;;;4.40;2.13;;;;;;;33.48;35.22;100021.72;5003594;28;20221;-65
2023/06/29 07:59:36;;;;;;;6.00;2.15;;;;;;;33.12;36.14;100027.09;4998801;28;20190;-65
2023/06/29 08:02:01;;;;;;;5.50;1.98;;;;;;;34.36;32.09;100024.06;5009115;28;20218;-65
2023/06/29 08:04:27;;;;;;;3.80;2.22;;;;;;;34.24;32.60;100028.63;5011751;28;20227;-65
2023/06/29 08:06:52;;;;;;;7.60;2.10;;;;;;;35.84;30.85;100028.81;4998976;28;20194;-65
2023/06/29 08:09:17;;;;;;;4.80;1.65;;;;;;;34.17;32.35;100027.97;5013248;28;20186;-65
2023/06/29 08:11:42;;;;;;;2.10;1.48;;;;;;;32.98;34.09;100023.06;5015468;28;20342;-65
2023/06/29 08:14:08;;;;;;;3.97;1.75;;;;;;;33.56;33.92;100018.63;5014069;28;20546;-65
2023/06/29 08:16:33;;;;;;;5.13;1.90;;;;;;;31.66;35.59;100009.81;5012875;28;20181;-65
2023/06/29 08:18:58;;;;;;;4.28;2.10;;;;;;;31.29;36.82;100009.84;5011408;28;20232;-65
2023/06/29 08:21:24;;;;;;;4.05;1.83;;;;;;;30.59;40.35;100001.97;5013527;28;20232;-64
2023/06/29 08:23:50;;;;;;;8.13;1.70;;;;;;;32.85;35.31;100004.66;4999079;28;20261;-64
2023/06/29 08:26:16;;;;;;;4.53;1.80;;;;;;;34.98;31.77;100016.91;5005348;28;20579;-65
2023/06/29 08:28:42;;;;;;;3.42;1.55;;;;;;;34.88;31.25;100020.25;5006780;28;20262;-64
2023/06/29 08:31:07;;;;;;;4.70;1.88;;;;;;;33.47;32.57;100014.75;4991912;28;20237;-65
2023/06/29 08:33:32;;;;;;;5.20;1.98;;;;;;;33.98;33.28;100011.41;4999948;28;20294;-63
2023/06/29 08:35:58;;;;;;;4.88;1.80;;;;;;;34.93;30.54;100011.53;4992806;28;20267;-64
2023/06/29 08:38:23;;;;;;;2.22;1.77;;;;;;;33.54;31.60;100006.59;4986028;28;20195;-64
2023/06/29 08:40:48;;;;;;;1.90;1.67;;;;;;;34.45;31.27;100011.09;4989056;28;20709;-63
2023/06/29 08:43:15;;;;;;;3.80;1.65;;;;;;;36.05;29.94;100001.44;5003102;28;20206;-64
2023/06/29 08:45:41;;;;;;;3.92;2.05;;;;;;;36.47;28.58;100006.84;4991456;28;20628;-65
2023/06/29 08:48:06;;;;;;;2.15;1.67;;;;;;;36.48;29.20;99999.63;4993523;28;20194;-64
2023/06/29 08:50:35;;;;;;;5.30;2.08;;;;;;;38.32;26.54;100013.81;4989571;28;20269;-64
2023/06/29 08:53:00;;;;;;;4.13;1.63;;;;;;;38.56;25.50;100010.53;5006404;28;20187;-64
2023/06/29 08:55:26;;;;;;;2.50;1.80;;;;;;;34.83;30.12;100009.50;4995127;28;20702;-65
2023/06/29 08:57:54;;;;;;;2.22;1.55;;;;;;;35.37;29.37;100002.69;4997467;28;20190;-65
2023/06/29 09:00:20;;;;;;;5.07;1.90;;;;;;;35.22;30.81;100001.41;4989963;28;20562;-63
2023/06/29 09:02:46;;;;;;;2.95;1.70;;;;;;;34.79;30.10;99999.53;5022404;28;20183;-66
2023/06/29 09:05:13;;;;;;;3.50;1.77;;;;;;;34.82;29.91;99994.50;4998560;28;20263;-65
2023/06/29 09:07:40;;;;;;;2.00;1.77;;;;;;;34.41;31.63;99984.06;5004758;28;20599;-65
2023/06/29 09:10:08;;;;;;;5.70;1.70;;;;;;;35.09;29.61;99984.97;4999352;28;20653;-65
2023/06/29 09:12:33;;;;;;;4.63;1.65;;;;;;;35.39;29.63;99981.84;5018354;28;20314;-64
2023/06/29 09:14:59;;;;;;;5.75;1.90;;;;;;;34.33;31.84;99980.97;5005024;28;20624;-63
2023/06/29 09:17:26;;;;;;;5.00;1.85;;;;;;;33.01;32.67;99979.16;4992699;28;20184;-64
2023/06/29 09:19:56;;;;;;;4.72;2.00;;;;;;;31.92;35.89;99976.69;4992799;28;20210;-64
2023/06/29 09:22:25;;;;;;;2.60;1.60;;;;;;;31.46;36.86;99964.88;4997538;28;20296;-64
2023/06/29 09:25:04;;;;;;;5.53;1.85;;;;;;;29.92;41.23;99973.28;4991897;28;20210;-64
2023/06/29 09:27:29;;;;;;;2.45;1.70;;;;;;;30.09;41.19;99972.75;4992537;28;20314;-64
2023/06/29 09:29:56;;;;;;;3.40;1.95;;;;;;;30.30;43.07;99965.44;4992750;28;20262;-65
2023/06/29 09:32:21;;;;;;;3.58;1.90;;;;;;;30.44;43.19;99966.97;4997737;28;20238;-64
2023/06/29 09:34:48;;;;;;;4.85;1.63;;;;;;;30.33;43.21;99968.50;4993333;28;20636;-64
2023/06/29 09:37:17;;;;;;;6.45;1.95;;;;;;;30.16;42.90;99964.75;4993277;28;20283;-64
2023/06/29 09:40:05;;;;;;;7.78;2.40;;;;;;;30.35;41.11;99969.09;4993315;28;20334;-63
2023/06/29 09:42:36;;;;;;;4.93;2.13;;;;;;;30.11;42.44;99963.53;4948059;28;20251;-64
2023/06/29 09:45:02;;;;;;;3.55;1.83;;;;;;;30.23;41.32;99952.25;4973154;28;20188;-64
2023/06/29 09:47:28;;;;;;;3.90;2.15;;;;;;;30.58;41.63;99960.53;4973898;28;20230;-63
2023/06/29 09:49:53;;;;;;;3.00;1.80;;;;;;;30.71;38.87;99964.06;4978340;28;20643;-64
2023/06/29 09:52:19;;;;;;;2.08;1.80;;;;;;;30.78;38.68;99962.16;4997636;28;20276;-64
2023/06/29 09:54:44;;;;;;;5.93;1.98;;;;;;;30.33;39.16;99962.34;4995236;28;20210;-64
2023/06/29 09:57:13;;;;;;;2.05;1.65;;;;;;;29.13;43.69;99956.72;4991284;28;20195;-63
2023/06/29 09:59:39;;;;;;;2.92;2.00;;;;;;;28.89;44.08;99943.16;4998091;28;20220;-64
2023/06/29 10:02:06;;;;;;;3.85;2.33;;;;;;;28.64;45.05;99945.63;4986077;28;20314;-64
2023/06/29 10:04:32;;;;;;;2.40;1.63;;;;;;;29.20;44.68;99954.88;5010582;28;20637;-63
2023/06/29 10:07:05;;;;;;;4.22;2.00;;;;;;;29.57;45.77;99943.69;4998485;28;20770;-65
2023/06/29 10:09:37;;;;;;;3.17;2.20;;;;;;;30.33;43.36;99951.75;5010575;28;20191;-65
2023/06/29 10:12:05;;;;;;;6.22;2.15;;;;;;;30.03;45.54;99955.03;5005554;28;20254;-65
2023/06/29 10:14:33;;;;;;;5.50;2.20;;;;;;;29.91;46.19;99947.00;4992399;28;20192;-65
2023/06/29 10:17:00;;;;;;;3.00;2.08;;;;;;;29.74;43.96;99941.38;4997033;28;20322;-65
2023/06/29 10:19:28;;;;;;;3.15;2.15;;;;;;;29.19;45.13;99932.06;5000316;28;20186;-65
2023/06/29 10:21:58;;;;;;;3.63;2.03;;;;;;;29.54;44.89;99933.53;4991957;28;20236;-65
2023/06/29 10:24:39;;;;;;;3.97;2.25;;;;;;;30.13;41.33;99938.66;4994814;28;20694;-65
2023/06/29 10:27:06;;;;;;;4.85;2.40;;;;;;;30.24;40.87;99936.13;4995734;28;20235;-65
2023/06/29 10:29:42;;;;;;;2.92;2.30;;;;;;;29.82;43.63;99938.47;4995379;28;20206;-65
2023/06/29 10:32:07;;;;;;;7.65;2.40;;;;;;;30.25;42.75;99939.56;5000468;28;20232;-64
2023/06/29 10:34:33;;;;;;;4.85;2.13;;;;;;;30.29;42.16;99939.94;5010053;28;20179;-65
2023/06/29 10:36:59;;;;;;;4.55;2.75;;;;;;;30.10;44.02;99934.59;5007565;28;20188;-65
2023/06/29 10:39:43;;;;;;;3.72;2.28;;;;;;;29.62;43.89;99934.09;5000316;28;20187;-64
2023/06/29 10:42:11;;;;;;;3.85;2.70;;;;;;;29.83;45.95;99936.63;5016093;28;20237;-65
2023/06/29 10:44:37;;;;;;;5.18;2.65;;;;;;;29.37;43.43;99928.72;5012154;28;20533;-65
2023/06/29 10:47:03;;;;;;;2.83;2.47;;;;;;;29.69;43.36;99928.75;5010466;28;20188;-64
2023/06/29 10:49:28;;;;;;;4.20;2.78;;;;;;;29.35;44.45;99928.13;5004304;28;20195;-63
2023/06/29 10:52:00;;;;;;;5.50;3.28;;;;;;;29.05;46.61;99915.41;5012767;28;20666;-64
2023/06/29 10:54:26;;;;;;;4.75;3.30;;;;;;;28.79;44.21;99914.47;5012546;28;20197;-64
2023/06/29 10:57:02;;;;;;;5.07;2.75;;;;;;;28.80;45.91;99920.56;5010490;28;20237;-72
2023/06/29 10:59:28;;;;;;;4.97;3.08;;;;;;;28.66;50.96;99914.47;5008528;28;20195;-68
2023/06/29 11:01:54;;;;;;;6.82;2.70;;;;;;;28.61;51.10;99909.00;5001631;28;20328;-73
2023/06/29 11:04:21;;;;;;;5.43;3.00;;;;;;;28.21;53.28;99915.16;5008178;28;20615;-73
2023/06/29 11:06:46;;;;;;;6.68;3.13;;;;;;;27.83;57.12;99921.03;5003537;28;20189;-73
2023/06/29 11:09:13;;;;;;;5.35;3.00;;;;;;;27.41;58.62;99917.69;5005403;28;20295;-73
2023/06/29 11:11:42;;;;;;;5.40;3.13;;;;;;;27.26;60.70;99917.81;4994098;28;20294;-73
2023/06/29 11:14:10;;;;;;;3.67;3.03;;;;;;;27.08;60.71;99913.91;4987537;28;20191;-74
2023/06/29 11:16:37;;;;;;;7.90;3.20;;;;;;;27.04;61.62;99916.09;4997881;28;20255;-69